TimeEST,TemperatureF,Dew PointF,Humidity,Sea Level PressureIn,VisibilityMPH,Wind Direction,Wind SpeedMPH,Gust SpeedMPH,PrecipitationIn,Events,Conditions,WindDirDegrees,DateUTC
12:53 AM,27.0,23.0,85,29.82,10.0,West,4.6,-,0.00,,Overcast,280,2013-01-22 05:53:00
1:53 AM,21.9,18.0,85,29.82,10.0,West,5.8,-,N/A,,Partly Cloudy,280,2013-01-22 06:53:00
2:53 AM,19.9,14.0,78,29.83,10.0,West,6.9,-,N/A,,Clear,280,2013-01-22 07:53:00
3:53 AM,19.0,10.9,71,29.84,10.0,West,8.1,-,N/A,,Clear,270,2013-01-22 08:53:00
4:53 AM,17.1,10.0,74,29.86,10.0,West,9.2,-,N/A,,Clear,270,2013-01-22 09:53:00
5:53 AM,19.9,12.0,71,29.90,10.0,West,8.1,-,N/A,,Overcast,270,2013-01-22 10:53:00
6:53 AM,21.9,12.0,66,29.92,10.0,NW,15.0,-,N/A,,Overcast,310,2013-01-22 11:53:00
7:53 AM,21.0,10.0,63,29.95,8.0,NW,13.8,21.9,N/A,,Overcast,320,2013-01-22 12:53:00
8:53 AM,21.0,10.0,63,29.98,10.0,WNW,11.5,-,N/A,,Overcast,290,2013-01-22 13:53:00
9:53 AM,21.9,5.0,48,29.99,10.0,NW,18.4,26.5,N/A,,Clear,310,2013-01-22 14:53:00
10:53 AM,21.9,5.0,48,30.00,10.0,WNW,18.4,26.5,N/A,,Partly Cloudy,300,2013-01-22 15:53:00
11:53 AM,21.9,3.9,46,29.99,8.0,West,19.6,33.4,N/A,,Partly Cloudy,270,2013-01-22 16:53:00
12:53 PM,23.0,3.9,44,29.97,10.0,West,16.1,28.8,N/A,,Mostly Cloudy,280,2013-01-22 17:53:00
1:53 PM,23.0,3.9,44,29.97,10.0,WNW,19.6,25.3,N/A,,Overcast,300,2013-01-22 18:53:00
2:53 PM,21.0,1.9,44,29.99,10.0,West,20.7,31.1,N/A,,Mostly Cloudy,280,2013-01-22 19:53:00
3:53 PM,21.0,1.0,42,30.01,10.0,WNW,18.4,25.3,N/A,,Mostly Cloudy,300,2013-01-22 20:53:00
4:53 PM,19.9,-0.9,40,30.04,10.0,WNW,17.3,23.0,N/A,,Scattered Clouds,300,2013-01-22 21:53:00
5:53 PM,18.0,-2.0,41,30.08,10.0,West,12.7,-,N/A,,Mostly Cloudy,280,2013-01-22 22:53:00
6:53 PM,17.1,-2.9,41,30.10,10.0,WNW,11.5,19.6,N/A,,Clear,290,2013-01-22 23:53:00
7:53 PM,15.1,-2.9,45,30.12,10.0,West,8.1,-,N/A,,Clear,280,2013-01-23 00:53:00
8:53 PM,16.0,-4.0,41,30.14,10.0,WNW,12.7,21.9,N/A,,Partly Cloudy,290,2013-01-23 01:53:00
9:53 PM,15.1,-7.1,37,30.15,10.0,West,8.1,-,N/A,,Clear,280,2013-01-23 02:53:00
10:53 PM,15.1,-5.1,41,30.17,10.0,WNW,18.4,28.8,N/A,,Mostly Cloudy,290,2013-01-23 03:53:00
11:53 PM,14.0,-6.0,41,30.17,10.0,West,12.7,-,N/A,,Partly Cloudy,280,2013-01-23 04:53:00